createdAt,value
2018-12-03T00:02:21.509Z,10.80
2018-12-03T00:04:50.058Z,10.80
2018-12-03T00:07:18.387Z,10.80
2018-12-03T00:09:46.995Z,10.80
2018-12-03T00:12:15.314Z,10.80
2018-12-03T00:14:43.654Z,10.90
2018-12-03T00:17:12.329Z,10.90
2018-12-03T00:19:41.437Z,10.90
2018-12-03T00:22:10.167Z,10.80
2018-12-03T00:24:38.545Z,10.80
2018-12-03T00:27:06.967Z,10.90
2018-12-03T00:29:35.378Z,10.90
2018-12-03T00:32:03.760Z,10.90
2018-12-03T00:34:32.188Z,10.90
2018-12-03T00:37:00.557Z,11.00
2018-12-03T00:39:29.288Z,10.90
2018-12-03T00:41:57.730Z,11.00
2018-12-03T00:44:26.142Z,11.10
2018-12-03T00:46:54.739Z,11.00
2018-12-03T00:49:23.130Z,11.00
2018-12-03T00:51:51.572Z,11.10
2018-12-03T00:54:20.078Z,11.20
2018-12-03T00:56:48.638Z,11.20
2018-12-03T00:59:17.026Z,11.20
2018-12-03T01:01:45.383Z,11.20
2018-12-03T01:07:04.354Z,11.20
2018-12-03T01:09:32.763Z,11.30
2018-12-03T01:12:01.152Z,11.30
2018-12-03T01:14:29.560Z,11.40
2018-12-03T01:16:58.004Z,11.40
2018-12-03T01:19:26.395Z,11.30
2018-12-03T01:21:54.813Z,11.30
2018-12-03T01:24:23.203Z,11.20
2018-12-03T01:26:51.587Z,11.20
2018-12-03T01:29:19.948Z,11.20
2018-12-03T01:31:48.318Z,11.20
2018-12-03T01:34:16.687Z,11.30
2018-12-03T01:36:45.125Z,11.30
2018-12-03T01:39:13.523Z,11.20
2018-12-03T01:41:41.881Z,11.20
2018-12-03T01:44:10.540Z,11.30
2018-12-03T01:46:38.965Z,11.40
2018-12-03T01:49:07.391Z,11.40
2018-12-03T01:51:35.777Z,11.40
2018-12-03T01:54:04.282Z,11.30
2018-12-03T01:56:32.621Z,11.30
2018-12-03T01:59:01.016Z,11.30
2018-12-03T02:01:29.438Z,11.30
2018-12-03T02:03:57.852Z,11.40
2018-12-03T02:06:26.271Z,11.40
2018-12-03T02:08:54.656Z,11.50
2018-12-03T02:11:23.037Z,11.50
2018-12-03T02:13:51.439Z,11.50
2018-12-03T02:16:19.860Z,11.40
2018-12-03T02:18:48.237Z,11.30
2018-12-03T02:21:16.629Z,11.30
2018-12-03T02:23:45.085Z,11.20
2018-12-03T02:26:13.471Z,11.20
2018-12-03T02:28:41.898Z,11.20
2018-12-03T02:31:10.287Z,11.10
2018-12-03T02:33:38.669Z,11.10
2018-12-03T02:36:07.093Z,11.10
2018-12-03T02:38:35.481Z,11.10
2018-12-03T02:41:03.897Z,11.10
2018-12-03T02:43:32.311Z,11.10
2018-12-03T02:46:00.741Z,11.20
2018-12-03T02:48:29.171Z,11.20
2018-12-03T02:50:57.544Z,11.20
2018-12-03T02:53:25.943Z,11.20
2018-12-03T02:55:54.277Z,11.30
2018-12-03T02:58:22.788Z,11.40
2018-12-03T03:00:51.185Z,11.40
2018-12-03T03:03:19.549Z,11.40
2018-12-03T03:05:47.934Z,11.40
2018-12-03T03:08:16.339Z,11.40
2018-12-03T03:10:44.720Z,11.40
2018-12-03T03:13:13.095Z,11.40
2018-12-03T03:15:41.485Z,11.40
2018-12-03T03:18:09.958Z,11.40
2018-12-03T03:20:38.916Z,11.30
2018-12-03T03:23:07.295Z,11.20
2018-12-03T03:25:35.782Z,11.20
2018-12-03T03:28:04.272Z,11.10
2018-12-03T03:30:32.657Z,11.00
2018-12-03T03:33:01.032Z,11.00
2018-12-03T03:35:29.527Z,11.00
2018-12-03T03:37:57.971Z,11.00
2018-12-03T03:40:26.378Z,11.10
2018-12-03T03:42:54.757Z,11.10
2018-12-03T03:45:24.498Z,11.00
2018-12-03T03:47:52.942Z,11.00
2018-12-03T03:50:21.343Z,11.00
2018-12-03T03:52:49.743Z,11.00
2018-12-03T03:55:18.085Z,10.90
2018-12-03T03:57:46.508Z,10.90
2018-12-03T04:00:15.644Z,10.80
2018-12-03T04:02:44.195Z,10.80
2018-12-03T04:05:14.621Z,10.80
2018-12-03T04:07:44.126Z,10.80
2018-12-03T04:10:13.245Z,10.80
2018-12-03T04:12:42.548Z,10.90
2018-12-03T04:15:11.968Z,10.90
2018-12-03T04:17:40.419Z,10.90
2018-12-03T04:20:13.068Z,10.90
2018-12-03T04:22:41.543Z,10.90
2018-12-03T04:25:10.988Z,11.00
2018-12-03T04:27:39.388Z,11.00
2018-12-03T04:30:10.625Z,11.00
2018-12-03T04:32:39.056Z,10.90
2018-12-03T04:35:08.300Z,11.00
2018-12-03T04:37:37.948Z,11.00
2018-12-03T04:40:09.642Z,10.90
2018-12-03T04:42:38.038Z,11.00
2018-12-03T04:45:09.506Z,11.00
2018-12-03T04:47:37.951Z,11.00
2018-12-03T04:50:09.527Z,10.90
2018-12-03T04:52:38.256Z,10.90
2018-12-03T04:55:06.757Z,10.90
2018-12-03T04:57:35.175Z,10.90
2018-12-03T05:00:04.788Z,11.00
2018-12-03T05:02:33.182Z,11.00
2018-12-03T05:05:01.592Z,11.00
2018-12-03T05:07:29.976Z,11.00
2018-12-03T05:09:58.354Z,11.00
2018-12-03T05:12:26.737Z,10.90
2018-12-03T05:14:55.120Z,11.00
2018-12-03T05:17:23.491Z,11.10
2018-12-03T05:19:51.903Z,11.00
2018-12-03T05:22:20.335Z,11.10
2018-12-03T05:24:48.716Z,11.10
2018-12-03T05:27:17.119Z,11.10
2018-12-03T05:29:45.576Z,11.10
2018-12-03T05:32:13.961Z,11.00
2018-12-03T05:34:42.407Z,11.10
2018-12-03T05:37:10.802Z,11.10
2018-12-03T05:39:39.229Z,11.00
2018-12-03T05:42:19.363Z,11.00
2018-12-03T05:44:47.767Z,10.90
2018-12-03T05:47:16.218Z,11.00
2018-12-03T05:49:44.631Z,11.00
2018-12-03T05:52:13.036Z,11.00
2018-12-03T05:54:41.432Z,11.00
2018-12-03T05:57:09.851Z,11.00
2018-12-03T05:59:38.253Z,11.00
2018-12-03T06:02:06.652Z,11.00
2018-12-03T06:04:35.143Z,11.00
2018-12-03T06:07:03.662Z,11.00
2018-12-03T06:09:32.095Z,11.00
2018-12-03T06:12:00.526Z,11.00
2018-12-03T06:14:28.915Z,11.00
2018-12-03T06:16:57.410Z,11.00
2018-12-03T06:19:25.918Z,11.10
2018-12-03T06:21:55.129Z,11.10
2018-12-03T06:24:23.563Z,11.10
2018-12-03T06:26:51.978Z,11.10
2018-12-03T06:29:20.503Z,11.10
2018-12-03T06:31:48.962Z,11.00
2018-12-03T06:34:17.377Z,11.00
2018-12-03T06:36:45.788Z,11.00
2018-12-03T06:39:14.240Z,11.00
2018-12-03T06:41:42.719Z,11.00
2018-12-03T06:44:11.128Z,11.00
2018-12-03T06:46:39.747Z,11.00
2018-12-03T06:49:08.161Z,11.00
2018-12-03T06:51:36.569Z,11.10
2018-12-03T06:54:05.125Z,11.10
2018-12-03T06:56:33.543Z,11.10
2018-12-03T06:59:01.995Z,11.10
2018-12-03T07:01:30.414Z,11.10
2018-12-03T07:03:58.795Z,11.10
2018-12-03T07:06:27.198Z,11.10
2018-12-03T07:08:55.604Z,11.10
2018-12-03T07:11:23.985Z,11.10
2018-12-03T07:13:52.503Z,11.10
2018-12-03T07:16:20.922Z,11.10
2018-12-03T07:18:49.344Z,11.10
2018-12-03T07:21:17.760Z,11.10
2018-12-03T07:23:46.150Z,11.10
2018-12-03T07:26:14.546Z,11.10
2018-12-03T07:28:42.888Z,11.10
2018-12-03T07:31:11.310Z,11.20
2018-12-03T07:33:39.748Z,11.20
2018-12-03T07:36:08.130Z,11.20
2018-12-03T07:38:36.610Z,11.30
2018-12-03T07:41:05.026Z,11.30
2018-12-03T07:43:33.437Z,11.30
2018-12-03T07:46:01.912Z,11.30
2018-12-03T07:48:30.432Z,11.20
2018-12-03T07:50:58.861Z,11.20
2018-12-03T07:53:27.275Z,11.20
2018-12-03T07:55:55.676Z,11.30
2018-12-03T07:58:24.114Z,11.40
2018-12-03T08:00:54.427Z,11.50
2018-12-03T08:03:22.953Z,11.60
2018-12-03T08:05:51.325Z,11.60
2018-12-03T08:08:19.735Z,11.60
2018-12-03T08:10:49.692Z,11.70
2018-12-03T08:13:18.865Z,11.60
2018-12-03T08:15:47.251Z,11.70
2018-12-03T08:18:17.173Z,11.70
2018-12-03T08:21:08.230Z,11.70
2018-12-03T08:23:55.549Z,11.60
2018-12-03T08:26:23.931Z,11.70
2018-12-03T08:28:52.361Z,11.70
2018-12-03T08:31:21.656Z,11.60
2018-12-03T08:33:50.057Z,11.70
2018-12-03T08:36:18.397Z,11.80
2018-12-03T08:38:46.807Z,11.80
2018-12-03T08:41:15.216Z,11.80
2018-12-03T08:43:43.635Z,11.90
2018-12-03T08:46:12.065Z,12.00
2018-12-03T08:48:42.114Z,12.00
2018-12-03T08:51:11.602Z,12.00
2018-12-03T08:53:40.154Z,12.10
2018-12-03T08:56:08.529Z,12.10
2018-12-03T08:58:36.915Z,12.10
2018-12-03T09:01:10.353Z,12.10
2018-12-03T09:03:38.830Z,12.20
2018-12-03T09:06:09.730Z,12.20
2018-12-03T09:08:38.240Z,12.30
2018-12-03T09:11:09.208Z,12.30
2018-12-03T09:13:37.615Z,12.40
2018-12-03T09:16:06.034Z,12.40
2018-12-03T09:18:35.732Z,12.50
2018-12-03T09:21:08.668Z,12.80
2018-12-03T09:23:37.246Z,13.20
2018-12-03T09:26:06.538Z,13.20
2018-12-03T09:28:35.404Z,12.90
2018-12-03T09:31:04.005Z,12.80
2018-12-03T09:33:32.362Z,12.70
2018-12-03T09:36:00.773Z,12.70
2018-12-03T09:38:29.202Z,12.80
2018-12-03T09:41:01.726Z,13.00
2018-12-03T09:43:30.657Z,13.10
2018-12-03T09:45:59.072Z,13.10
2018-12-03T09:48:27.467Z,13.20
2018-12-03T09:50:55.909Z,13.20
2018-12-03T09:53:24.322Z,13.30
2018-12-03T09:55:52.853Z,13.40
2018-12-03T09:58:23.298Z,13.30
2018-12-03T10:00:51.729Z,13.30
2018-12-03T10:03:25.813Z,13.30
2018-12-03T10:05:58.080Z,13.30
2018-12-03T10:08:31.867Z,13.40
2018-12-03T10:11:01.587Z,13.40
2018-12-03T10:13:31.003Z,13.30
2018-12-03T10:15:59.408Z,13.40
2018-12-03T10:18:27.929Z,13.50
2018-12-03T10:20:58.832Z,13.70
2018-12-03T10:23:27.288Z,13.70
2018-12-03T10:25:57.149Z,15.50
2018-12-03T10:28:25.919Z,16.90
2018-12-03T10:30:55.854Z,17.70
2018-12-03T10:33:28.291Z,18.30
2018-12-03T10:35:56.690Z,18.10
2018-12-03T10:38:27.952Z,18.30
2018-12-03T10:40:58.506Z,17.90
2018-12-03T10:43:27.066Z,16.50
2018-12-03T10:45:55.603Z,16.50
2018-12-03T10:48:24.038Z,15.40
2018-12-03T10:50:52.478Z,14.70
2018-12-03T10:53:27.869Z,14.40
2018-12-03T10:55:56.311Z,14.40
2018-12-03T10:58:24.757Z,14.50
2018-12-03T11:01:06.238Z,14.40
2018-12-03T11:03:40.058Z,14.30
2018-12-03T11:06:20.091Z,14.40
2018-12-03T11:08:48.534Z,15.20
2018-12-03T11:11:16.983Z,14.90
2018-12-03T11:13:45.404Z,14.60
2018-12-03T11:16:32.074Z,14.40
2018-12-03T11:19:00.530Z,14.40
2018-12-03T11:21:28.971Z,14.40
2018-12-03T11:23:57.437Z,14.40
2018-12-03T11:26:31.669Z,14.50
2018-12-03T11:29:00.231Z,14.40
2018-12-03T11:31:30.060Z,14.30
2018-12-03T11:33:58.525Z,14.30
2018-12-03T11:36:59.505Z,14.30
2018-12-03T11:39:55.934Z,14.30
2018-12-03T11:42:26.488Z,14.30
2018-12-03T11:44:55.010Z,14.40
2018-12-03T11:47:23.490Z,14.80
2018-12-03T11:49:51.960Z,16.10
2018-12-03T11:52:20.434Z,15.50
2018-12-03T11:54:48.910Z,14.90
2018-12-03T11:57:17.330Z,14.60
2018-12-03T11:59:45.730Z,14.50
2018-12-03T12:02:14.142Z,14.50
2018-12-03T12:04:42.542Z,14.40
2018-12-03T12:07:10.949Z,14.50
2018-12-03T12:09:39.386Z,14.60
2018-12-03T12:12:07.838Z,14.10
2018-12-03T12:14:36.292Z,13.30
2018-12-03T12:17:05.037Z,12.80
2018-12-03T12:19:33.529Z,12.60
2018-12-03T12:22:01.977Z,12.60
2018-12-03T12:24:30.311Z,12.60
2018-12-03T12:26:58.687Z,12.30
2018-12-03T12:29:27.132Z,12.10
2018-12-03T12:31:55.522Z,11.90
2018-12-03T12:34:23.969Z,11.80
2018-12-03T12:36:52.388Z,11.80
2018-12-03T12:39:20.861Z,12.20
2018-12-03T12:41:49.278Z,13.40
2018-12-03T12:44:17.716Z,13.80
2018-12-03T12:46:48.422Z,13.90
2018-12-03T12:49:16.833Z,14.30
2018-12-03T12:51:45.269Z,13.80
2018-12-03T12:54:13.706Z,13.20
2018-12-03T12:56:42.121Z,13.10
2018-12-03T12:59:10.578Z,12.70
2018-12-03T13:01:38.963Z,12.70
2018-12-03T13:04:08.084Z,13.10
2018-12-03T13:06:36.650Z,13.90
2018-12-03T13:09:08.694Z,14.50
2018-12-03T13:11:37.600Z,15.20
2018-12-03T13:14:07.863Z,15.50
2018-12-03T13:16:36.278Z,15.50
2018-12-03T13:19:05.439Z,14.80
2018-12-03T13:21:33.854Z,14.50
2018-12-03T13:24:02.270Z,14.20
2018-12-03T13:26:32.198Z,13.90
2018-12-03T13:29:00.608Z,13.90
2018-12-03T13:31:29.062Z,14.00
2018-12-03T13:33:57.483Z,13.90
2018-12-03T13:36:25.889Z,13.80
2018-12-03T13:38:54.398Z,13.70
2018-12-03T13:41:22.830Z,13.90
2018-12-03T13:43:51.248Z,13.80
2018-12-03T13:46:19.666Z,13.90
2018-12-03T13:48:48.054Z,13.90
2018-12-03T13:51:16.474Z,14.00
2018-12-03T13:53:44.886Z,13.90
2018-12-03T13:56:13.396Z,13.90
2018-12-03T13:58:42.062Z,13.90
2018-12-03T14:01:10.462Z,13.90
2018-12-03T14:03:39.922Z,13.80
2018-12-03T14:06:16.410Z,13.70
2018-12-03T14:08:54.463Z,13.60
2018-12-03T14:11:32.532Z,13.50
2018-12-03T14:16:13.606Z,13.50
2018-12-03T14:18:51.070Z,13.40
2018-12-03T14:21:26.762Z,13.30
2018-12-03T14:23:56.790Z,13.30
2018-12-03T14:26:25.215Z,13.30
2018-12-03T14:28:53.714Z,13.10
2018-12-03T14:31:22.146Z,13.10
2018-12-03T14:33:50.846Z,13.10
2018-12-03T14:36:19.294Z,13.00
2018-12-03T14:38:47.840Z,13.00
2018-12-03T14:41:16.282Z,13.00
2018-12-03T14:43:44.778Z,13.00
2018-12-03T14:46:13.238Z,12.90
2018-12-03T14:48:41.754Z,12.90
2018-12-03T14:51:10.198Z,12.80
2018-12-03T14:53:38.669Z,12.70
2018-12-03T14:56:07.090Z,12.70
2018-12-03T14:58:35.522Z,12.70
2018-12-03T15:01:04.071Z,12.70
2018-12-03T15:03:32.483Z,12.50
2018-12-03T15:06:00.858Z,12.50
2018-12-03T15:08:29.522Z,12.50
2018-12-03T15:10:57.965Z,12.50
2018-12-03T15:13:26.407Z,12.40
2018-12-03T15:15:54.862Z,12.30
2018-12-03T15:18:23.262Z,12.20
2018-12-03T15:20:53.877Z,12.20
2018-12-03T15:23:22.271Z,12.20
2018-12-03T15:25:50.667Z,12.10
2018-12-03T15:28:19.359Z,12.10
2018-12-03T15:30:47.777Z,12.00
2018-12-03T15:33:16.191Z,12.00
2018-12-03T15:35:44.596Z,12.00
2018-12-03T15:38:12.933Z,11.90
2018-12-03T15:40:41.381Z,11.90
2018-12-03T15:43:09.754Z,11.80
2018-12-03T15:45:38.154Z,11.70
2018-12-03T15:48:06.545Z,11.70
2018-12-03T15:50:34.939Z,11.60
2018-12-03T15:53:03.414Z,11.50
2018-12-03T15:55:31.842Z,11.50
2018-12-03T15:58:00.210Z,11.40
2018-12-03T16:00:28.614Z,11.40
2018-12-03T16:02:57.035Z,11.30
2018-12-03T16:05:26.433Z,11.30
2018-12-03T16:07:54.850Z,11.30
2018-12-03T16:10:23.300Z,11.20
2018-12-03T16:12:52.101Z,11.20
2018-12-03T16:15:20.522Z,11.10
2018-12-03T16:17:49.056Z,11.10
2018-12-03T16:20:17.513Z,11.00
2018-12-03T16:22:45.962Z,11.00
2018-12-03T16:25:14.349Z,11.00
2018-12-03T16:27:42.784Z,10.80
2018-12-03T16:30:16.006Z,10.90
2018-12-03T16:32:44.388Z,10.90
2018-12-03T16:35:12.897Z,10.80
2018-12-03T16:37:41.494Z,10.80
2018-12-03T16:40:10.050Z,10.80
2018-12-03T16:42:39.095Z,10.70
2018-12-03T16:45:08.420Z,10.70
2018-12-03T16:47:36.951Z,10.80
2018-12-03T16:50:07.369Z,10.80
2018-12-03T16:52:35.812Z,10.80
2018-12-03T16:55:04.289Z,10.70
2018-12-03T16:57:33.108Z,10.60
2018-12-03T17:00:01.527Z,10.60
2018-12-03T17:02:29.963Z,10.60
2018-12-03T17:04:58.421Z,10.70
2018-12-03T17:07:26.797Z,10.70
2018-12-03T17:09:55.268Z,10.70
2018-12-03T17:12:27.103Z,10.80
2018-12-03T17:14:55.541Z,10.80
2018-12-03T17:17:23.926Z,10.80
2018-12-03T17:19:52.349Z,10.80
2018-12-03T17:22:31.536Z,10.80
2018-12-03T17:25:00.042Z,10.90
2018-12-03T17:27:28.608Z,10.90
2018-12-03T17:29:57.071Z,10.90
2018-12-03T17:32:25.495Z,10.90
2018-12-03T17:34:53.912Z,11.00
2018-12-03T17:37:22.358Z,11.00
2018-12-03T17:39:50.784Z,11.00
2018-12-03T17:42:19.204Z,11.00
2018-12-03T17:44:47.694Z,11.00
2018-12-03T17:47:16.188Z,11.00
2018-12-03T17:49:44.646Z,11.00
2018-12-03T17:52:13.078Z,11.00
2018-12-03T17:54:41.492Z,11.10
2018-12-03T17:57:10.083Z,11.10
2018-12-03T17:59:38.593Z,11.10
2018-12-03T18:02:07.017Z,11.10
2018-12-03T18:04:35.390Z,11.10
2018-12-03T18:07:03.865Z,11.10
2018-12-03T18:09:32.257Z,11.10
2018-12-03T18:12:00.643Z,11.10
2018-12-03T18:14:29.166Z,11.10
2018-12-03T18:16:57.621Z,11.10
2018-12-03T18:19:26.046Z,11.10
2018-12-03T18:21:54.564Z,11.20
2018-12-03T18:24:22.971Z,11.20
2018-12-03T18:26:51.561Z,11.20
2018-12-03T18:29:20.122Z,11.20
2018-12-03T18:31:48.576Z,11.20
2018-12-03T18:34:17.101Z,11.20
2018-12-03T18:36:45.492Z,11.20
2018-12-03T18:39:13.910Z,11.20
2018-12-03T18:41:42.352Z,11.10
2018-12-03T18:44:10.746Z,11.10
2018-12-03T18:46:39.238Z,11.10
2018-12-03T18:49:14.502Z,11.10
2018-12-03T18:51:42.934Z,11.10
2018-12-03T18:54:11.336Z,11.10
2018-12-03T18:56:39.846Z,11.10
2018-12-03T18:59:08.339Z,11.20
2018-12-03T19:01:36.751Z,11.10
2018-12-03T19:04:05.227Z,11.10
2018-12-03T19:06:33.661Z,11.20
2018-12-03T19:09:02.132Z,11.20
2018-12-03T19:11:30.592Z,11.20
2018-12-03T19:13:59.443Z,11.20
2018-12-03T19:16:27.883Z,11.20
2018-12-03T19:18:56.343Z,11.10
2018-12-03T19:21:24.680Z,11.10
2018-12-03T19:23:53.095Z,11.10
2018-12-03T19:26:21.479Z,11.10
2018-12-03T19:28:49.897Z,11.10
2018-12-03T19:31:18.336Z,11.10
2018-12-03T19:33:46.841Z,11.10
2018-12-03T19:36:15.391Z,11.10
2018-12-03T19:38:43.808Z,11.10
2018-12-03T19:41:12.265Z,11.10
2018-12-03T19:43:40.785Z,11.00
2018-12-03T19:46:09.157Z,10.90
2018-12-03T19:48:37.585Z,10.90
2018-12-03T19:51:06.083Z,10.80
2018-12-03T19:53:34.493Z,10.80
2018-12-03T19:56:02.977Z,10.80
2018-12-03T19:58:35.463Z,10.80
2018-12-03T20:01:03.890Z,10.80
2018-12-03T20:03:32.390Z,10.80
2018-12-03T20:06:00.797Z,10.90
2018-12-03T20:08:29.209Z,10.80
2018-12-03T20:10:57.791Z,10.80
2018-12-03T20:13:26.218Z,10.80
2018-12-03T20:15:54.888Z,10.80
2018-12-03T20:18:24.078Z,10.80
2018-12-03T20:20:57.426Z,10.80
2018-12-03T20:23:30.834Z,10.80
2018-12-03T20:26:11.350Z,10.80
2018-12-03T20:29:23.140Z,10.70
2018-12-03T20:32:08.730Z,10.80
2018-12-03T20:34:45.585Z,10.70
2018-12-03T20:37:30.107Z,10.80
2018-12-03T20:40:13.695Z,10.80
2018-12-03T20:42:43.920Z,10.80
2018-12-03T20:45:21.263Z,10.80
2018-12-03T20:47:51.998Z,10.80
2018-12-03T20:50:30.576Z,10.80
2018-12-03T20:52:59.095Z,10.80
2018-12-03T20:55:32.382Z,10.80
2018-12-03T20:58:00.814Z,10.90
2018-12-03T21:00:29.384Z,10.90
2018-12-03T21:03:00.053Z,10.90
2018-12-03T21:05:28.628Z,10.90
2018-12-03T21:07:57.107Z,10.90
2018-12-03T21:10:25.639Z,10.90
2018-12-03T21:12:54.198Z,10.90
2018-12-03T21:15:22.627Z,11.00
2018-12-03T21:17:51.681Z,11.00
2018-12-03T21:20:39.105Z,11.00
2018-12-03T21:23:07.669Z,11.00
2018-12-03T21:26:10.650Z,10.90
2018-12-03T21:28:38.229Z,10.90
2018-12-03T21:31:05.790Z,10.90
2018-12-03T21:33:33.318Z,10.80
2018-12-03T21:36:00.808Z,10.80
2018-12-03T21:38:28.309Z,10.80
2018-12-03T21:40:55.788Z,10.70
2018-12-03T21:43:23.301Z,10.70
2018-12-03T21:45:50.775Z,10.80
2018-12-03T21:48:19.058Z,10.80
2018-12-03T21:50:46.547Z,10.80
2018-12-03T21:53:14.094Z,10.80
2018-12-03T21:55:41.593Z,10.80
2018-12-03T21:58:11.201Z,10.70
2018-12-03T22:00:38.693Z,10.80
2018-12-03T22:03:06.199Z,10.80
2018-12-03T22:05:33.856Z,10.70
2018-12-03T22:08:01.424Z,10.80
2018-12-03T22:10:28.907Z,10.80
2018-12-03T22:12:56.367Z,10.70
2018-12-03T22:15:23.962Z,10.70
2018-12-03T22:17:51.460Z,10.80
2018-12-03T22:20:18.964Z,10.80
2018-12-03T22:22:47.075Z,10.80
2018-12-03T22:25:14.586Z,10.70
2018-12-03T22:27:42.220Z,10.70
2018-12-03T22:30:09.821Z,10.70
2018-12-03T22:32:37.826Z,10.60
2018-12-03T22:35:05.404Z,10.60
2018-12-03T22:37:32.889Z,10.70
2018-12-03T22:40:00.380Z,10.60
2018-12-03T22:42:27.993Z,10.60
2018-12-03T22:44:55.474Z,10.60
2018-12-03T22:47:22.956Z,10.50
2018-12-03T22:49:50.432Z,10.50
2018-12-03T22:52:17.922Z,10.50
2018-12-03T22:54:45.417Z,10.50
2018-12-03T22:57:12.940Z,10.40
2018-12-03T22:59:40.428Z,10.40
2018-12-03T23:02:08.006Z,10.50
2018-12-03T23:04:37.454Z,10.50
2018-12-03T23:07:05.005Z,10.50
2018-12-03T23:09:32.499Z,10.50
2018-12-03T23:12:01.236Z,10.50
2018-12-03T23:14:28.742Z,10.50
2018-12-03T23:16:57.138Z,10.50
2018-12-03T23:19:24.646Z,10.50
2018-12-03T23:21:52.142Z,10.50
2018-12-03T23:24:19.622Z,10.60
2018-12-03T23:26:47.112Z,10.50
2018-12-03T23:29:14.596Z,10.60
2018-12-03T23:31:42.089Z,10.60
2018-12-03T23:34:09.562Z,10.70
2018-12-03T23:36:37.076Z,10.70
2018-12-03T23:39:06.891Z,10.70
2018-12-03T23:41:34.445Z,10.70
2018-12-03T23:44:02.078Z,10.70
2018-12-03T23:46:29.570Z,10.70
2018-12-03T23:48:57.058Z,10.70
2018-12-03T23:51:24.606Z,10.70
2018-12-03T23:53:52.092Z,10.70
2018-12-03T23:56:19.588Z,10.60
2018-12-03T23:58:47.058Z,10.70
